createdAt,value
2018-12-29T00:00:06.389Z,49.46
2018-12-29T00:02:34.564Z,49.39
2018-12-29T00:05:02.760Z,49.54
2018-12-29T00:07:30.953Z,49.36
2018-12-29T00:09:59.181Z,49.48
2018-12-29T00:12:27.326Z,49.27
2018-12-29T00:14:55.516Z,49.31
2018-12-29T00:17:23.730Z,49.01
2018-12-29T00:19:51.885Z,49.52
2018-12-29T00:22:20.197Z,49.37
2018-12-29T00:24:48.521Z,49.40
2018-12-29T00:27:16.713Z,49.46
2018-12-29T00:29:44.910Z,49.69
2018-12-29T00:32:13.078Z,49.63
2018-12-29T00:34:41.276Z,49.54
2018-12-29T00:37:09.421Z,49.61
2018-12-29T00:39:37.594Z,49.73
2018-12-29T00:42:05.869Z,49.54
2018-12-29T00:44:34.069Z,49.45
2018-12-29T00:47:02.221Z,49.63
2018-12-29T00:49:30.423Z,49.49
2018-12-29T00:51:58.614Z,49.45
2018-12-29T00:54:26.852Z,49.49
2018-12-29T00:56:54.995Z,49.29
2018-12-29T00:59:23.208Z,49.39
2018-12-29T01:01:51.404Z,49.74
2018-12-29T01:04:19.590Z,49.96
2018-12-29T01:06:47.801Z,49.82
2018-12-29T01:09:16.018Z,49.97
2018-12-29T01:11:44.184Z,49.92
2018-12-29T01:14:12.394Z,49.85
2018-12-29T01:16:40.621Z,49.89
2018-12-29T01:19:08.837Z,49.95
2018-12-29T01:21:37.058Z,50.04
2018-12-29T01:24:05.234Z,49.93
2018-12-29T01:26:33.419Z,50.05
2018-12-29T01:29:01.602Z,50.13
2018-12-29T01:31:29.753Z,50.04
2018-12-29T01:33:57.961Z,50.14
2018-12-29T01:36:26.134Z,50.25
2018-12-29T01:38:54.353Z,50.25
2018-12-29T01:41:22.529Z,50.32
2018-12-29T01:43:50.714Z,50.36
2018-12-29T01:46:18.931Z,50.33
2018-12-29T01:48:47.178Z,50.36
2018-12-29T01:51:15.513Z,50.28
2018-12-29T01:53:47.238Z,50.41
2018-12-29T01:56:15.381Z,50.31
2018-12-29T01:58:43.550Z,50.31
2018-12-29T02:01:11.782Z,50.42
2018-12-29T02:03:39.963Z,50.54
2018-12-29T02:06:08.154Z,50.41
2018-12-29T02:08:36.430Z,50.21
2018-12-29T02:11:04.586Z,50.49
2018-12-29T02:13:32.740Z,50.59
2018-12-29T02:16:00.968Z,50.78
2018-12-29T02:18:29.178Z,50.65
2018-12-29T02:20:57.381Z,50.79
2018-12-29T02:23:25.602Z,50.60
2018-12-29T02:25:54.279Z,50.67
2018-12-29T02:28:22.527Z,50.95
2018-12-29T02:30:50.702Z,50.81
2018-12-29T02:33:18.879Z,50.77
2018-12-29T02:35:47.082Z,50.78
2018-12-29T02:38:15.272Z,50.81
2018-12-29T02:40:43.477Z,50.89
2018-12-29T02:43:11.638Z,50.81
2018-12-29T02:45:39.893Z,50.93
2018-12-29T02:48:08.077Z,50.90
2018-12-29T02:50:36.309Z,50.79
2018-12-29T02:53:04.635Z,50.86
2018-12-29T02:55:32.856Z,50.73
2018-12-29T02:58:00.989Z,50.79
2018-12-29T03:00:29.218Z,50.76
2018-12-29T03:02:57.377Z,51.01
2018-12-29T03:05:25.543Z,51.04
2018-12-29T03:07:53.770Z,50.92
2018-12-29T03:10:22.063Z,50.97
2018-12-29T03:12:50.235Z,50.98
2018-12-29T03:15:18.461Z,51.02
2018-12-29T03:17:46.646Z,51.23
2018-12-29T03:20:14.855Z,50.96
2018-12-29T03:22:43.058Z,51.14
2018-12-29T03:25:11.249Z,51.33
2018-12-29T03:27:39.460Z,51.20
2018-12-29T03:30:07.926Z,51.34
2018-12-29T03:32:36.188Z,51.44
2018-12-29T03:35:06.501Z,51.57
2018-12-29T03:37:34.736Z,51.20
2018-12-29T03:40:02.897Z,51.28
2018-12-29T03:42:31.070Z,51.24
2018-12-29T03:44:59.292Z,51.39
2018-12-29T03:47:27.555Z,51.25
2018-12-29T03:49:55.738Z,50.97
2018-12-29T03:52:24.023Z,51.09
2018-12-29T03:54:52.247Z,51.17
2018-12-29T03:57:20.409Z,50.98
2018-12-29T03:59:48.619Z,51.12
2018-12-29T04:02:16.842Z,51.11
2018-12-29T04:04:45.137Z,51.07
2018-12-29T04:07:13.268Z,50.95
2018-12-29T04:09:41.459Z,50.96
2018-12-29T04:12:11.417Z,51.10
2018-12-29T04:14:39.578Z,51.35
2018-12-29T04:17:07.792Z,51.22
2018-12-29T04:19:35.965Z,51.33
2018-12-29T04:22:04.170Z,51.46
2018-12-29T04:24:32.334Z,51.56
2018-12-29T04:27:00.509Z,51.56
2018-12-29T04:29:28.786Z,51.49
2018-12-29T04:31:56.942Z,51.52
2018-12-29T04:34:25.109Z,51.60
2018-12-29T04:36:53.276Z,51.62
2018-12-29T04:39:21.438Z,51.81
2018-12-29T04:41:49.614Z,51.66
2018-12-29T04:44:17.781Z,51.80
2018-12-29T04:46:45.925Z,51.81
2018-12-29T04:49:14.094Z,51.70
2018-12-29T04:51:42.345Z,51.80
2018-12-29T04:54:10.514Z,51.76
2018-12-29T04:56:38.746Z,51.79
2018-12-29T04:59:06.913Z,51.83
2018-12-29T05:01:35.084Z,52.02
2018-12-29T05:04:03.331Z,51.95
2018-12-29T05:06:31.487Z,51.99
2018-12-29T05:08:59.645Z,52.04
2018-12-29T05:11:27.915Z,51.92
2018-12-29T05:13:56.092Z,52.05
2018-12-29T05:16:24.279Z,51.95
2018-12-29T05:18:52.454Z,51.85
2018-12-29T05:21:20.662Z,52.13
2018-12-29T05:23:48.872Z,52.15
2018-12-29T05:26:17.053Z,52.13
2018-12-29T05:28:45.268Z,51.89
2018-12-29T05:31:13.454Z,51.93
2018-12-29T05:33:41.711Z,52.11
2018-12-29T05:36:09.948Z,52.33
2018-12-29T05:38:38.159Z,52.24
2018-12-29T05:41:06.409Z,52.10
2018-12-29T05:43:34.606Z,52.09
2018-12-29T05:46:02.808Z,52.10
2018-12-29T05:48:31.003Z,52.25
2018-12-29T05:50:59.154Z,52.22
2018-12-29T05:53:27.360Z,52.29
2018-12-29T05:55:55.607Z,52.30
2018-12-29T05:58:23.870Z,52.18
2018-12-29T06:00:52.050Z,52.16
2018-12-29T06:03:20.237Z,52.34
2018-12-29T06:05:48.419Z,52.37
2018-12-29T06:08:16.608Z,52.42
2018-12-29T06:10:44.847Z,52.22
2018-12-29T06:13:13.023Z,52.37
2018-12-29T06:15:41.222Z,52.39
2018-12-29T06:18:09.398Z,52.16
2018-12-29T06:20:37.600Z,52.45
2018-12-29T06:23:05.750Z,52.32
2018-12-29T06:25:33.937Z,52.29
2018-12-29T06:28:02.121Z,52.58
2018-12-29T06:30:30.260Z,52.57
2018-12-29T06:32:58.442Z,52.46
2018-12-29T06:35:26.603Z,52.60
2018-12-29T06:37:54.770Z,52.64
2018-12-29T06:40:22.941Z,52.74
2018-12-29T06:42:51.098Z,52.98
2018-12-29T06:45:19.273Z,52.97
2018-12-29T06:47:47.447Z,53.08
2018-12-29T06:50:15.625Z,53.20
2018-12-29T06:52:43.899Z,53.44
2018-12-29T06:55:12.079Z,53.33
2018-12-29T06:57:40.267Z,53.42
2018-12-29T07:00:08.426Z,53.83
2018-12-29T07:02:36.647Z,53.48
2018-12-29T07:05:04.841Z,53.92
2018-12-29T07:07:33.064Z,54.21
2018-12-29T07:10:01.310Z,53.85
2018-12-29T07:12:29.519Z,54.55
2018-12-29T07:14:57.783Z,54.18
2018-12-29T07:17:25.892Z,53.75
2018-12-29T07:19:54.099Z,53.50
2018-12-29T07:22:22.341Z,53.19
2018-12-29T07:24:50.525Z,53.00
2018-12-29T07:27:18.720Z,52.94
2018-12-29T07:29:46.997Z,53.06
2018-12-29T07:32:15.177Z,52.88
2018-12-29T07:34:43.411Z,52.61
2018-12-29T07:37:11.625Z,53.28
2018-12-29T07:39:39.781Z,53.87
2018-12-29T07:42:07.946Z,54.17
2018-12-29T07:44:36.117Z,53.07
2018-12-29T07:47:04.420Z,53.30
2018-12-29T07:49:32.547Z,53.19
2018-12-29T07:52:00.760Z,53.28
2018-12-29T07:54:28.901Z,53.29
2018-12-29T07:56:57.077Z,53.11
2018-12-29T07:59:25.286Z,53.10
2018-12-29T08:01:53.438Z,53.20
2018-12-29T08:04:21.598Z,53.15
2018-12-29T08:06:49.838Z,53.04
2018-12-29T08:09:18.009Z,52.90
2018-12-29T08:11:46.139Z,53.01
2018-12-29T08:14:14.262Z,52.75
2018-12-29T08:16:42.399Z,52.67
2018-12-29T08:19:10.531Z,52.82
2018-12-29T08:21:38.686Z,52.74
2018-12-29T08:24:06.814Z,52.78
2018-12-29T08:26:34.924Z,52.92
2018-12-29T08:29:03.058Z,52.67
2018-12-29T08:31:31.271Z,52.73
2018-12-29T08:33:59.413Z,52.59
2018-12-29T08:36:27.541Z,52.53
2018-12-29T08:38:55.662Z,52.53
2018-12-29T08:41:23.793Z,52.33
2018-12-29T08:43:51.897Z,52.38
2018-12-29T08:46:20.106Z,52.44
2018-12-29T08:48:48.217Z,52.47
2018-12-29T08:51:16.428Z,52.42
2018-12-29T08:53:44.562Z,52.47
2018-12-29T08:56:12.695Z,52.32
2018-12-29T08:58:40.860Z,52.34
2018-12-29T09:01:08.971Z,52.21
2018-12-29T09:03:37.190Z,52.37
2018-12-29T09:06:05.373Z,52.24
2018-12-29T09:08:33.483Z,52.23
2018-12-29T09:11:01.625Z,52.09
2018-12-29T09:13:29.754Z,51.98
2018-12-29T09:15:57.886Z,51.88
2018-12-29T09:18:25.998Z,52.00
2018-12-29T09:20:54.116Z,53.39
2018-12-29T09:23:22.266Z,52.66
2018-12-29T09:25:50.387Z,52.54
2018-12-29T09:28:18.511Z,52.22
2018-12-29T09:30:46.690Z,52.24
2018-12-29T09:33:14.837Z,52.13
2018-12-29T09:35:42.985Z,52.22
2018-12-29T09:38:11.114Z,52.13
2018-12-29T09:40:39.294Z,52.03
2018-12-29T09:43:07.447Z,52.10
2018-12-29T09:45:35.565Z,52.13
2018-12-29T09:48:03.715Z,51.99
2018-12-29T09:50:31.854Z,51.82
2018-12-29T09:52:59.989Z,51.89
2018-12-29T09:55:28.167Z,51.86
2018-12-29T09:57:56.286Z,51.77
2018-12-29T10:00:24.503Z,51.77
2018-12-29T10:02:53.517Z,51.40
2018-12-29T10:05:21.655Z,51.79
2018-12-29T10:07:49.773Z,51.72
2018-12-29T10:10:17.922Z,51.94
2018-12-29T10:12:46.028Z,51.94
2018-12-29T10:15:14.166Z,52.02
2018-12-29T10:17:42.285Z,51.74
2018-12-29T10:20:10.473Z,51.84
2018-12-29T10:22:38.681Z,51.75
2018-12-29T10:25:06.810Z,51.69
2018-12-29T10:27:34.929Z,51.68
2018-12-29T10:30:03.161Z,51.71
2018-12-29T10:32:31.296Z,51.64
2018-12-29T10:34:59.417Z,51.67
2018-12-29T10:37:27.535Z,51.63
2018-12-29T10:39:55.669Z,51.56
2018-12-29T10:42:23.850Z,51.59
2018-12-29T10:44:52.014Z,51.60
2018-12-29T10:47:20.138Z,51.65
2018-12-29T10:49:48.253Z,51.47
2018-12-29T10:52:16.426Z,51.47
2018-12-29T10:54:44.648Z,51.61
2018-12-29T10:57:12.802Z,51.67
2018-12-29T10:59:40.986Z,51.46
2018-12-29T11:02:09.126Z,51.48
2018-12-29T11:04:37.260Z,51.56
2018-12-29T11:07:05.379Z,51.63
2018-12-29T11:09:33.542Z,51.53
2018-12-29T11:12:01.680Z,51.42
2018-12-29T11:14:29.873Z,51.33
2018-12-29T11:16:58.022Z,51.57
2018-12-29T11:19:26.206Z,51.51
2018-12-29T11:21:54.359Z,51.49
2018-12-29T11:24:22.535Z,51.28
2018-12-29T11:26:50.690Z,51.24
2018-12-29T11:29:18.853Z,51.42
2018-12-29T11:31:47.035Z,51.24
2018-12-29T11:34:15.206Z,51.28
2018-12-29T11:36:43.363Z,51.39
2018-12-29T11:39:11.551Z,51.30
2018-12-29T11:41:39.750Z,51.30
2018-12-29T11:44:07.898Z,51.27
2018-12-29T11:46:36.035Z,51.43
2018-12-29T11:49:04.150Z,51.42
2018-12-29T11:51:32.282Z,51.47
2018-12-29T11:54:00.446Z,51.29
2018-12-29T11:56:28.561Z,51.36
2018-12-29T11:58:56.677Z,51.48
2018-12-29T12:01:24.929Z,51.32
2018-12-29T12:03:53.033Z,51.31
2018-12-29T12:06:21.186Z,51.30
2018-12-29T12:08:49.294Z,51.33
2018-12-29T12:11:17.439Z,51.40
2018-12-29T12:13:45.665Z,51.59
2018-12-29T12:16:13.859Z,51.44
2018-12-29T12:18:42.019Z,51.19
2018-12-29T12:21:10.138Z,51.43
2018-12-29T12:23:38.313Z,51.24
2018-12-29T12:26:06.657Z,51.38
2018-12-29T12:28:34.784Z,51.18
2018-12-29T12:31:02.925Z,51.21
2018-12-29T12:33:31.059Z,51.13
2018-12-29T12:35:59.186Z,51.51
2018-12-29T12:38:27.382Z,51.43
2018-12-29T12:40:55.492Z,51.31
2018-12-29T12:43:23.929Z,51.36
2018-12-29T12:45:52.354Z,51.49
2018-12-29T12:48:20.479Z,51.56
2018-12-29T12:50:48.809Z,51.48
2018-12-29T12:53:16.978Z,51.29
2018-12-29T12:55:45.413Z,51.24
2018-12-29T12:58:13.847Z,51.21
2018-12-29T13:00:42.169Z,51.16
2018-12-29T13:03:10.594Z,51.40
2018-12-29T13:05:38.761Z,51.29
2018-12-29T13:08:06.903Z,51.29
2018-12-29T13:10:35.022Z,51.46
2018-12-29T13:13:03.176Z,51.28
2018-12-29T13:15:31.301Z,51.28
2018-12-29T13:17:59.410Z,51.23
2018-12-29T13:20:27.827Z,51.37
2018-12-29T13:22:56.504Z,51.15
2018-12-29T13:25:26.052Z,51.37
2018-12-29T13:27:54.927Z,51.30
2018-12-29T13:30:23.184Z,51.66
2018-12-29T13:32:52.573Z,51.61
2018-12-29T13:35:20.719Z,50.95
2018-12-29T13:37:49.379Z,51.27
2018-12-29T13:40:17.494Z,51.49
2018-12-29T13:42:46.097Z,52.32
2018-12-29T13:45:14.498Z,51.99
2018-12-29T13:47:43.242Z,52.12
2018-12-29T13:50:11.350Z,52.36
2018-12-29T13:52:40.230Z,52.35
2018-12-29T13:55:08.475Z,52.30
2018-12-29T13:57:38.887Z,52.36
2018-12-29T14:00:07.133Z,52.27
2018-12-29T14:02:35.971Z,52.36
2018-12-29T14:05:04.178Z,52.32
2018-12-29T14:07:32.747Z,52.21
2018-12-29T14:10:00.866Z,52.27
2018-12-29T14:12:29.150Z,51.50
2018-12-29T14:14:57.374Z,51.87
2018-12-29T14:17:25.488Z,51.99
2018-12-29T14:19:53.648Z,51.86
2018-12-29T14:22:21.770Z,51.85
2018-12-29T14:24:50.006Z,51.56
2018-12-29T14:27:18.131Z,51.57
2018-12-29T14:29:46.254Z,51.76
2018-12-29T14:32:14.394Z,51.53
2018-12-29T14:34:42.518Z,51.63
2018-12-29T14:37:10.796Z,51.43
2018-12-29T14:39:39.023Z,51.50
2018-12-29T14:42:07.139Z,51.33
2018-12-29T14:44:35.286Z,51.34
2018-12-29T14:47:03.705Z,51.22
2018-12-29T14:49:31.918Z,51.28
2018-12-29T14:52:00.057Z,51.13
2018-12-29T14:54:28.398Z,51.14
2018-12-29T14:56:56.570Z,51.05
2018-12-29T14:59:25.139Z,51.02
2018-12-29T15:01:53.318Z,50.86
2018-12-29T15:04:21.473Z,51.11
2018-12-29T15:06:49.650Z,51.03
2018-12-29T15:09:17.789Z,51.06
2018-12-29T15:11:46.275Z,50.99
2018-12-29T15:14:14.495Z,51.06
2018-12-29T15:16:43.076Z,50.83
2018-12-29T15:19:11.270Z,50.76
2018-12-29T15:21:39.413Z,50.81
2018-12-29T15:24:08.993Z,50.71
2018-12-29T15:26:37.294Z,50.70
2018-12-29T15:29:06.023Z,50.65
2018-12-29T15:31:34.197Z,50.71
2018-12-29T15:34:02.393Z,50.73
2018-12-29T15:36:30.926Z,50.68
2018-12-29T15:38:59.130Z,50.57
2018-12-29T15:41:27.309Z,50.67
2018-12-29T15:43:55.590Z,50.60
2018-12-29T15:46:23.786Z,50.56
2018-12-29T15:48:52.000Z,50.55
2018-12-29T15:51:20.598Z,50.34
2018-12-29T15:53:48.830Z,50.38
2018-12-29T15:56:17.346Z,50.42
2018-12-29T15:58:45.566Z,50.34
2018-12-29T16:01:14.034Z,50.43
2018-12-29T16:03:42.226Z,50.38
2018-12-29T16:06:10.388Z,50.48
2018-12-29T16:08:38.586Z,50.38
2018-12-29T16:11:06.778Z,50.51
2018-12-29T16:13:35.269Z,50.35
2018-12-29T16:16:03.447Z,50.43
2018-12-29T16:18:31.637Z,50.35
2018-12-29T16:20:59.901Z,50.37
2018-12-29T16:23:28.063Z,50.40
2018-12-29T16:25:56.265Z,50.37
2018-12-29T16:28:24.441Z,50.38
2018-12-29T16:30:52.594Z,50.38
2018-12-29T16:33:20.833Z,50.31
2018-12-29T16:35:49.018Z,50.25
2018-12-29T16:38:17.181Z,50.22
2018-12-29T16:40:45.377Z,50.31
2018-12-29T16:43:13.683Z,50.13
2018-12-29T16:45:41.958Z,50.28
2018-12-29T16:48:10.416Z,50.29
2018-12-29T16:50:38.544Z,50.29
2018-12-29T16:53:06.778Z,50.26
2018-12-29T16:55:34.956Z,50.31
2018-12-29T16:58:03.363Z,50.12
2018-12-29T17:00:31.530Z,49.96
2018-12-29T17:02:59.723Z,50.11
2018-12-29T17:05:27.926Z,50.13
2018-12-29T17:07:56.377Z,50.00
2018-12-29T17:10:24.603Z,50.02
2018-12-29T17:12:52.864Z,49.98
2018-12-29T17:15:21.122Z,50.21
2018-12-29T17:17:49.278Z,50.23
2018-12-29T17:20:17.490Z,50.13
2018-12-29T17:22:45.612Z,50.20
2018-12-29T17:25:13.746Z,50.28
2018-12-29T17:27:41.853Z,50.18
2018-12-29T17:30:10.082Z,50.21
2018-12-29T17:32:38.737Z,50.28
2018-12-29T17:35:06.960Z,50.20
2018-12-29T17:37:35.078Z,50.08
2018-12-29T17:40:03.407Z,50.12
2018-12-29T17:42:31.945Z,50.05
2018-12-29T17:45:00.093Z,49.90
2018-12-29T17:47:28.396Z,49.92
2018-12-29T17:49:56.566Z,49.84
2018-12-29T17:52:24.677Z,50.03
2018-12-29T17:54:53.233Z,50.00
2018-12-29T17:57:21.358Z,49.84
2018-12-29T17:59:49.468Z,49.88
2018-12-29T18:02:17.623Z,49.96
2018-12-29T18:04:45.741Z,49.86
2018-12-29T18:07:13.894Z,49.85
2018-12-29T18:09:42.005Z,50.02
2018-12-29T18:12:10.130Z,50.02
2018-12-29T18:14:38.249Z,50.13
2018-12-29T18:17:06.378Z,49.99
2018-12-29T18:19:34.518Z,50.11
2018-12-29T18:22:03.043Z,49.99
2018-12-29T18:24:31.196Z,49.98
2018-12-29T18:26:59.315Z,50.01
2018-12-29T18:29:27.433Z,50.09
2018-12-29T18:31:55.958Z,49.96
2018-12-29T18:34:24.113Z,49.97
2018-12-29T18:36:52.462Z,50.12
2018-12-29T18:39:20.587Z,50.13
2018-12-29T18:41:48.726Z,50.24
2018-12-29T18:44:16.845Z,50.18
2018-12-29T18:46:45.202Z,50.03
2018-12-29T18:49:13.339Z,50.21
2018-12-29T18:51:41.453Z,50.10
2018-12-29T18:54:09.602Z,50.17
2018-12-29T18:56:45.342Z,50.17
2018-12-29T18:59:07.662Z,50.30
2018-12-29T19:01:35.801Z,50.09
2018-12-29T19:04:04.022Z,50.27
2018-12-29T19:06:32.154Z,50.26
2018-12-29T19:09:00.347Z,50.14
2018-12-29T19:11:32.270Z,50.08
2018-12-29T19:14:00.850Z,50.11
2018-12-29T19:16:28.994Z,50.03
2018-12-29T19:18:57.516Z,49.99
2018-12-29T19:21:25.660Z,50.24
2018-12-29T19:23:54.283Z,50.14
2018-12-29T19:26:22.811Z,50.24
2018-12-29T19:28:52.637Z,50.04
2018-12-29T19:31:20.954Z,50.18
2018-12-29T19:33:49.129Z,50.24
2018-12-29T19:36:36.575Z,50.16
2018-12-29T19:39:07.374Z,50.11
2018-12-29T19:41:35.583Z,50.14
2018-12-29T19:44:03.797Z,50.00
2018-12-29T19:46:33.639Z,49.93
2018-12-29T19:49:01.845Z,50.10
2018-12-29T19:51:31.706Z,50.18
2018-12-29T19:53:59.893Z,50.06
2018-12-29T19:56:28.069Z,50.14
2018-12-29T19:58:57.987Z,49.93
2018-12-29T20:01:26.178Z,50.26
2018-12-29T20:03:56.030Z,50.28
2018-12-29T20:06:25.879Z,50.29
2018-12-29T20:09:13.142Z,50.17
2018-12-29T20:11:41.362Z,50.10
2018-12-29T20:14:09.582Z,50.15
2018-12-29T20:16:37.740Z,50.00
2018-12-29T20:19:05.918Z,49.90
2018-12-29T20:21:34.051Z,49.96
2018-12-29T20:24:02.261Z,50.11
2018-12-29T20:26:30.416Z,50.05
2018-12-29T20:28:58.615Z,50.03
2018-12-29T20:31:26.786Z,50.12
2018-12-29T20:33:54.962Z,50.11
2018-12-29T20:36:23.144Z,50.11
2018-12-29T20:38:51.351Z,50.15
2018-12-29T20:41:21.206Z,50.15
2018-12-29T20:43:49.407Z,50.16
2018-12-29T20:46:17.616Z,50.30
2018-12-29T20:48:45.781Z,50.07
2018-12-29T20:51:13.975Z,50.10
2018-12-29T20:53:42.210Z,49.84
2018-12-29T20:56:10.398Z,50.22
2018-12-29T20:58:38.569Z,50.14
2018-12-29T21:01:25.866Z,50.22
2018-12-29T21:03:54.060Z,50.35
2018-12-29T21:06:22.222Z,50.13
2018-12-29T21:08:50.413Z,50.20
2018-12-29T21:11:18.642Z,49.96
2018-12-29T21:13:46.805Z,50.06
2018-12-29T21:19:02.147Z,50.05
2018-12-29T21:21:49.187Z,50.22
2018-12-29T21:24:17.414Z,49.99
2018-12-29T21:29:34.410Z,50.06
2018-12-29T21:32:02.601Z,50.03
2018-12-29T21:34:49.881Z,50.10
2018-12-29T21:37:18.001Z,50.16
2018-12-29T21:39:46.250Z,50.06
2018-12-29T21:42:14.393Z,50.02
2018-12-29T21:44:42.594Z,50.09
2018-12-29T21:47:12.540Z,49.88
2018-12-29T21:49:40.763Z,50.04
2018-12-29T21:52:08.943Z,50.03
2018-12-29T21:54:37.226Z,49.96
2018-12-29T21:57:05.426Z,49.98
2018-12-29T21:59:33.663Z,50.01
2018-12-29T22:02:03.578Z,49.98
2018-12-29T22:04:31.802Z,49.86
2018-12-29T22:07:00.047Z,50.00
2018-12-29T22:09:28.200Z,50.07
2018-12-29T22:12:15.455Z,49.98
2018-12-29T22:17:17.855Z,49.84
2018-12-29T22:19:46.025Z,49.97
2018-12-29T22:22:14.194Z,50.02
2018-12-29T22:24:44.085Z,49.84
2018-12-29T22:27:12.245Z,50.02
2018-12-29T22:29:40.473Z,49.82
2018-12-29T22:32:08.686Z,49.84
2018-12-29T22:34:36.955Z,49.86
2018-12-29T22:37:05.146Z,49.99
2018-12-29T22:39:33.321Z,49.86
2018-12-29T22:42:01.517Z,49.80
2018-12-29T22:44:29.692Z,49.76
2018-12-29T22:46:57.883Z,49.89
2018-12-29T22:49:26.056Z,49.87
2018-12-29T22:51:54.523Z,49.74
2018-12-29T22:54:22.759Z,49.72
2018-12-29T22:56:50.886Z,49.89
2018-12-29T22:59:19.032Z,49.84
2018-12-29T23:01:47.210Z,49.99
2018-12-29T23:04:15.439Z,50.10
2018-12-29T23:06:43.648Z,49.96
2018-12-29T23:09:12.134Z,49.94
2018-12-29T23:11:40.288Z,49.90
2018-12-29T23:14:08.520Z,49.91
2018-12-29T23:16:36.635Z,49.96
2018-12-29T23:19:04.822Z,50.03
2018-12-29T23:21:32.957Z,50.06
2018-12-29T23:26:51.594Z,50.02
2018-12-29T23:29:21.391Z,49.97
2018-12-29T23:31:49.621Z,49.94
2018-12-29T23:34:17.774Z,50.08
2018-12-29T23:36:45.948Z,50.11
2018-12-29T23:39:14.206Z,50.09
2018-12-29T23:41:44.053Z,50.18
2018-12-29T23:44:12.252Z,50.27
2018-12-29T23:46:40.454Z,50.13
2018-12-29T23:49:08.781Z,50.12
2018-12-29T23:51:36.981Z,50.02
2018-12-29T23:54:06.798Z,50.06
2018-12-29T23:56:36.704Z,50.05
2018-12-29T23:59:04.892Z,49.92
